Terminal Aerodrome Forecast
Issued by NWS

Home | Current Version | Previous Version | Graphics & Text | Print | Product List | Glossary On
Versions: 1 2 3 4 5 6 7 8 9 10 11 12 13 14 15
000
FTUS43 KMPX 220500
TAFRNH
TAF
KRNH 220520Z 2206/2306 35012KT P6SM SKC
     FM220800 34007KT P6SM SKC
     FM221400 33012KT P6SM SKC
     FM221800 35008KT P6SM FEW250
     FM230200 07006KT P6SM SCT250=

USA.gov is the U.S. government's official web portal to all federal, state and local government web resources and services.